Impacts METAR Board
IDs:

KGYB - Giddings/Lee Cnty, TX, US

Updated at: 1200 UTC 16 Jul 2019
Potential Impact None Slight Moderate High
Time 16/00Z 16/01Z 16/02Z 16/03Z 16/04Z 16/05Z 16/06Z 16/07Z 16/08Z 16/09Z 16/10Z 16/11Z 16/12Z
Temp95 93 92 90 87 85 84 83 82 81 81 80 80
Dewpt75 75 75 76 78 78 79 79 79 79 79 79 79
Altim29.88 29.89 29.90 29.92 29.94 29.95 29.97 29.97 29.97 29.98 29.98 29.99 30.00
VIS10 10 10 10 10 10 10 10 10 10 10 7 5
CIG-- -- -- -- -- -- -- -- -- -- 9 7 5
CoverCLRCLRCLRCLRCLRCLRSCTSCTSCTSCTOVCBKNBKN
FltCatVFRVFRVFRVFRVFRVFRVFRVFRVFRVFRIFRIFRIFR
WX------------------------BR
WDir1800170180190180190190180190190190190
WSpd3 0 7 6 6 5 5 4 3 6 5 5 7
WGst-- -- -- -- -- -- -- -- -- -- -- -- --
Raw hourly METARs
KGYB 152355Z AUTO 18003KT 10SM CLR 35/24 A2988 RMK AO2 T03490240 10375 20347
KGYB 160055Z AUTO 00000KT 10SM CLR 34/24 A2989 RMK AO2 T03410240
KGYB 160155Z AUTO 17007KT 10SM CLR 33/24 A2990 RMK AO2 T03320240
KGYB 160255Z AUTO 18006KT 150V210 10SM CLR 32/25 A2992 RMK AO2 T03200246
KGYB 160355Z AUTO 19006KT 10SM CLR 31/26 A2994 RMK AO2 T03070255
KGYB 160455Z AUTO 18005KT 10SM CLR 30/26 A2995 RMK AO2 T02960257
KGYB 160555Z AUTO 19005KT 10SM SCT014 29/26 A2997 RMK AO2 T02880261 10348 20288 403750260
KGYB 160655Z AUTO 19004KT 10SM SCT014 28/26 A2997 RMK AO2 T02820261
KGYB 160755Z AUTO 18003KT 10SM SCT011 28/26 A2997 RMK AO2 T02750262
KGYB 160855Z AUTO 19006KT 10SM SCT011 SCT018 27/26 A2998 RMK AO2 T02720260
KGYB 160955Z AUTO 19005KT 10SM BKN009 OVC013 27/26 A2998 RMK AO2 T02720260
KGYB 161055Z AUTO 19005KT 7SM BKN007 27/26 A2999 RMK AO2 T02690260
KGYB 161155Z AUTO 19007KT 5SM BR BKN005 27/26 A3000 RMK AO2 T02670261 10288 20266